Time;durP1;ratioP1;P1;durP2;ratioP2;P2;SDS_P1;SDS_P2;PMS_P1;PMS_P2;Temp;Humidity;BMP_temperature;BMP_pressure;BME280_temperature;BME280_humidity;BME280_pressure;Samples;Min_cycle;Max_cycle;Signal;HPM_P1;HPM_P2
2024/03/30 00:01:09;;;;;;;42.42;7.15;;;;;;;;;;4987895;28;20054;-63
2024/03/30 00:03:37;;;;;;;29.70;6.18;;;;;;;;;;4986569;28;20050;-62
2024/03/30 00:06:05;;;;;;;46.10;7.18;;;;;;;;;;4987735;28;20054;-67
2024/03/30 00:08:32;;;;;;;44.58;7.22;;;;;;;;;;4987356;28;20047;-61
2024/03/30 00:11:00;;;;;;;31.58;6.70;;;;;;;;;;4995602;28;20081;-61
2024/03/30 00:13:27;;;;;;;39.80;6.28;;;;;;;;;;5014189;28;20066;-61
2024/03/30 00:15:53;;;;;;;46.05;7.22;;;;;;;;;;5006193;28;20133;-61
2024/03/30 00:18:21;;;;;;;51.60;6.63;;;;;;;;;;5009099;28;20041;-63
2024/03/30 00:20:48;;;;;;;31.95;5.93;;;;;;;;;;5007253;28;20046;-63
2024/03/30 00:23:16;;;;;;;42.58;6.47;;;;;;;;;;5008439;28;20046;-62
2024/03/30 00:25:51;;;;;;;41.22;6.10;;;;;;;;;;5004222;28;20659;-60
2024/03/30 00:28:18;;;;;;;36.90;6.22;;;;;;;;;;4964183;28;20054;-65
2024/03/30 00:30:45;;;;;;;49.75;6.35;;;;;;;;;;5012655;28;20115;-63
2024/03/30 00:33:12;;;;;;;37.70;5.97;;;;;;;;;;5005458;28;20068;-62
2024/03/30 00:35:39;;;;;;;42.55;6.70;;;;;;;;;;5023500;28;20046;-64
2024/03/30 00:38:07;;;;;;;34.65;6.00;;;;;;;;;;5007573;28;20049;-60
2024/03/30 00:40:35;;;;;;;47.97;6.25;;;;;;;;;;5013798;28;20087;-63
2024/03/30 00:43:02;;;;;;;38.45;6.43;;;;;;;;;;5042722;28;20057;-63
2024/03/30 00:45:29;;;;;;;32.08;6.25;;;;;;;;;;5006524;28;20058;-62
2024/03/30 00:47:56;;;;;;;35.50;6.10;;;;;;;;;;5006695;28;20060;-61
2024/03/30 00:50:23;;;;;;;40.65;6.40;;;;;;;;;;5006951;28;20053;-60
2024/03/30 00:52:50;;;;;;;46.30;5.57;;;;;;;;;;5004655;28;20059;-71
2024/03/30 00:55:16;;;;;;;35.97;5.72;;;;;;;;;;4994824;28;20050;-65
2024/03/30 00:57:45;;;;;;;38.40;6.75;;;;;;;;;;4989574;28;20111;-65
2024/03/30 01:00:14;;;;;;;36.10;5.47;;;;;;;;;;4986576;28;20038;-62
2024/03/30 01:02:41;;;;;;;33.28;6.10;;;;;;;;;;4986365;28;20602;-60
2024/03/30 01:05:08;;;;;;;36.10;5.30;;;;;;;;;;4986899;28;20095;-62
2024/03/30 01:07:36;;;;;;;49.42;6.28;;;;;;;;;;4983770;28;20066;-64
2024/03/30 01:10:03;;;;;;;23.13;4.90;;;;;;;;;;4986897;28;20111;-63
2024/03/30 01:12:31;;;;;;;33.20;4.97;;;;;;;;;;4986366;28;20053;-63
2024/03/30 01:14:59;;;;;;;48.25;6.07;;;;;;;;;;4987467;28;20528;-60
2024/03/30 01:17:27;;;;;;;32.05;5.78;;;;;;;;;;5000799;28;20046;-60
2024/03/30 01:19:55;;;;;;;36.08;5.25;;;;;;;;;;5006800;28;20104;-66
2024/03/30 01:22:23;;;;;;;42.03;6.13;;;;;;;;;;5006407;28;20061;-62
2024/03/30 01:24:50;;;;;;;32.67;5.05;;;;;;;;;;5006587;28;20560;-63
2024/03/30 01:27:20;;;;;;;28.17;4.90;;;;;;;;;;5005729;28;20053;-62
2024/03/30 01:29:47;;;;;;;34.58;5.85;;;;;;;;;;5006687;28;20053;-61
2024/03/30 01:32:16;;;;;;;39.38;6.72;;;;;;;;;;5006217;28;20831;-66
2024/03/30 01:34:43;;;;;;;33.80;5.55;;;;;;;;;;5001319;28;20395;-66
2024/03/30 01:37:10;;;;;;;38.80;5.25;;;;;;;;;;5002995;28;20054;-64
2024/03/30 01:39:37;;;;;;;30.33;4.40;;;;;;;;;;5002313;28;20046;-62
2024/03/30 01:42:04;;;;;;;34.72;5.32;;;;;;;;;;5005106;28;20131;-64
2024/03/30 01:44:30;;;;;;;35.45;5.05;;;;;;;;;;5005085;28;20091;-60
2024/03/30 01:46:58;;;;;;;28.15;4.57;;;;;;;;;;5004890;28;20498;-59
2024/03/30 01:49:26;;;;;;;33.25;4.50;;;;;;;;;;5006186;28;20054;-63
2024/03/30 01:51:53;;;;;;;29.23;4.65;;;;;;;;;;5004901;28;20474;-58
2024/03/30 01:54:21;;;;;;;37.65;5.47;;;;;;;;;;5005675;28;20294;-60
2024/03/30 01:56:50;;;;;;;26.67;4.65;;;;;;;;;;5005742;28;20046;-58
2024/03/30 01:59:16;;;;;;;38.03;5.72;;;;;;;;;;5005809;28;20058;-59
2024/03/30 02:01:46;;;;;;;31.65;4.57;;;;;;;;;;5004568;28;20341;-62
2024/03/30 02:04:16;;;;;;;30.65;5.15;;;;;;;;;;5005116;28;20050;-59
2024/03/30 02:06:45;;;;;;;25.25;5.20;;;;;;;;;;5005070;28;20372;-59
2024/03/30 02:09:12;;;;;;;26.50;3.30;;;;;;;;;;4999731;28;20495;-62
2024/03/30 02:11:40;;;;;;;28.10;3.88;;;;;;;;;;5005267;28;20054;-59
2024/03/30 02:14:08;;;;;;;30.77;4.28;;;;;;;;;;5005530;28;20054;-61
2024/03/30 02:16:36;;;;;;;38.33;4.32;;;;;;;;;;5004069;28;20451;-61
2024/03/30 02:19:04;;;;;;;24.30;3.92;;;;;;;;;;5005567;28;20054;-58
2024/03/30 02:21:31;;;;;;;26.40;4.68;;;;;;;;;;5005569;28;20054;-58
2024/03/30 02:23:59;;;;;;;32.42;4.50;;;;;;;;;;5005400;28;20506;-58
2024/03/30 02:26:26;;;;;;;33.08;4.90;;;;;;;;;;4999808;28;20050;-59
2024/03/30 02:28:54;;;;;;;26.90;4.15;;;;;;;;;;4984858;28;20834;-61
2024/03/30 02:31:22;;;;;;;27.10;4.25;;;;;;;;;;4985801;28;20419;-64
2024/03/30 02:33:48;;;;;;;40.22;4.53;;;;;;;;;;4985421;28;20491;-59
2024/03/30 02:36:16;;;;;;;37.47;4.47;;;;;;;;;;5022996;28;20081;-59
2024/03/30 02:38:42;;;;;;;26.85;4.10;;;;;;;;;;5082590;28;20044;-60
2024/03/30 02:41:11;;;;;;;26.33;4.18;;;;;;;;;;5084760;28;20044;-59
2024/03/30 02:43:37;;;;;;;25.40;4.10;;;;;;;;;;5086501;28;20408;-61
2024/03/30 02:46:05;;;;;;;34.40;4.57;;;;;;;;;;5086915;28;20106;-58
2024/03/30 02:48:32;;;;;;;20.08;4.00;;;;;;;;;;5087144;28;20039;-58
2024/03/30 02:50:59;;;;;;;34.60;4.13;;;;;;;;;;5087969;28;20051;-60
2024/03/30 02:53:26;;;;;;;23.40;4.18;;;;;;;;;;5086925;28;20052;-63
2024/03/30 02:55:53;;;;;;;24.85;3.75;;;;;;;;;;5082602;28;20382;-61
2024/03/30 02:58:21;;;;;;;21.58;3.88;;;;;;;;;;4983771;28;20054;-62
2024/03/30 03:00:48;;;;;;;28.80;4.18;;;;;;;;;;4985666;28;20058;-58
2024/03/30 03:03:15;;;;;;;26.23;3.67;;;;;;;;;;4985452;28;20515;-58
2024/03/30 03:05:42;;;;;;;27.33;4.28;;;;;;;;;;4985246;28;20042;-62
2024/03/30 03:08:09;;;;;;;25.38;3.92;;;;;;;;;;4984495;28;20057;-60
2024/03/30 03:10:36;;;;;;;33.90;3.88;;;;;;;;;;4984709;28;20054;-59
2024/03/30 03:13:03;;;;;;;24.17;3.85;;;;;;;;;;4985126;28;20103;-58
2024/03/30 03:15:31;;;;;;;28.27;4.68;;;;;;;;;;4985135;28;20051;-57
2024/03/30 03:17:58;;;;;;;19.02;3.75;;;;;;;;;;4990000;28;20054;-61
2024/03/30 03:20:25;;;;;;;25.42;3.55;;;;;;;;;;4990031;28;20058;-59
2024/03/30 03:22:51;;;;;;;24.92;4.70;;;;;;;;;;4994271;28;20034;-60
2024/03/30 03:25:19;;;;;;;18.38;3.65;;;;;;;;;;4989204;28;20062;-58
2024/03/30 03:27:45;;;;;;;28.55;4.25;;;;;;;;;;4986222;28;20058;-58
2024/03/30 03:30:13;;;;;;;25.67;4.10;;;;;;;;;;4990503;28;20054;-58
2024/03/30 03:32:40;;;;;;;30.20;4.22;;;;;;;;;;4997120;28;20517;-62
2024/03/30 03:35:08;;;;;;;18.88;3.67;;;;;;;;;;4987755;28;20050;-60
2024/03/30 03:37:34;;;;;;;22.48;4.07;;;;;;;;;;5080214;28;20412;-62
2024/03/30 03:40:02;;;;;;;25.67;3.60;;;;;;;;;;5087606;28;20056;-58
2024/03/30 03:42:28;;;;;;;22.85;3.38;;;;;;;;;;5088913;28;20055;-59
2024/03/30 03:44:56;;;;;;;17.52;3.90;;;;;;;;;;5090856;28;20108;-61
2024/03/30 03:47:22;;;;;;;22.98;2.90;;;;;;;;;;5025918;28;20046;-66
2024/03/30 03:49:51;;;;;;;18.02;3.90;;;;;;;;;;4990524;28;20054;-60
2024/03/30 03:52:17;;;;;;;23.25;3.80;;;;;;;;;;4988930;28;20104;-59
2024/03/30 03:54:45;;;;;;;16.17;4.13;;;;;;;;;;4987005;28;20065;-59
2024/03/30 03:57:11;;;;;;;22.27;3.15;;;;;;;;;;4987840;28;20046;-59
2024/03/30 03:59:39;;;;;;;23.73;3.53;;;;;;;;;;4988483;28;20050;-59
2024/03/30 04:02:05;;;;;;;23.17;3.15;;;;;;;;;;4987373;28;20094;-59
2024/03/30 04:04:32;;;;;;;13.93;3.25;;;;;;;;;;4991775;28;20043;-59
2024/03/30 04:07:00;;;;;;;15.68;3.20;;;;;;;;;;4988244;28;20042;-58
2024/03/30 04:09:28;;;;;;;19.67;3.30;;;;;;;;;;4991131;28;20115;-59
2024/03/30 04:11:55;;;;;;;17.23;3.30;;;;;;;;;;4984980;28;20050;-61
2024/03/30 04:14:22;;;;;;;16.08;2.72;;;;;;;;;;4990290;28;20058;-60
2024/03/30 04:16:49;;;;;;;18.67;3.25;;;;;;;;;;4990284;28;20039;-61
2024/03/30 04:19:17;;;;;;;17.77;2.92;;;;;;;;;;4990778;28;20419;-59
2024/03/30 04:21:44;;;;;;;18.45;3.47;;;;;;;;;;4989752;28;20055;-59
2024/03/30 04:24:13;;;;;;;20.10;3.72;;;;;;;;;;4990331;28;20120;-59
2024/03/30 04:26:39;;;;;;;21.48;3.55;;;;;;;;;;5026605;28;20278;-60
2024/03/30 04:29:07;;;;;;;21.60;3.60;;;;;;;;;;5089403;28;20044;-64
2024/03/30 04:31:33;;;;;;;21.63;3.80;;;;;;;;;;5089641;28;20428;-62
2024/03/30 04:34:00;;;;;;;29.42;3.88;;;;;;;;;;5090154;28;20059;-58
2024/03/30 04:36:27;;;;;;;23.45;3.95;;;;;;;;;;5060787;28;20046;-60
2024/03/30 04:38:54;;;;;;;22.30;2.90;;;;;;;;;;4986540;28;20579;-59
2024/03/30 04:41:23;;;;;;;25.00;3.30;;;;;;;;;;4978564;28;20050;-64
2024/03/30 04:43:50;;;;;;;19.88;3.22;;;;;;;;;;4983820;28;20051;-63
2024/03/30 04:46:17;;;;;;;14.35;2.78;;;;;;;;;;4987179;28;20068;-58
2024/03/30 04:48:47;;;;;;;21.20;3.22;;;;;;;;;;4986542;28;20080;-60
2024/03/30 04:51:14;;;;;;;22.27;3.70;;;;;;;;;;4983358;28;20103;-59
2024/03/30 04:53:41;;;;;;;21.80;3.40;;;;;;;;;;4980998;28;20047;-61
2024/03/30 04:56:08;;;;;;;18.67;3.97;;;;;;;;;;4986638;28;20499;-59
2024/03/30 04:58:37;;;;;;;14.55;3.13;;;;;;;;;;4987589;28;20171;-60
2024/03/30 05:01:05;;;;;;;17.20;2.97;;;;;;;;;;4992792;28;20051;-64
2024/03/30 05:03:32;;;;;;;20.73;3.17;;;;;;;;;;5027346;27;20408;-59
2024/03/30 05:05:58;;;;;;;18.10;2.70;;;;;;;;;;4996881;28;20455;-62
2024/03/30 05:08:26;;;;;;;20.42;3.47;;;;;;;;;;5004835;28;20476;-58
2024/03/30 05:10:52;;;;;;;31.70;5.03;;;;;;;;;;5051606;28;20054;-57
2024/03/30 05:13:20;;;;;;;28.67;3.60;;;;;;;;;;5046375;27;20050;-58
2024/03/30 05:15:48;;;;;;;20.45;3.63;;;;;;;;;;5028148;28;20072;-59
2024/03/30 05:18:16;;;;;;;16.20;3.25;;;;;;;;;;5020095;28;20476;-61
2024/03/30 05:20:49;;;;;;;28.13;4.20;;;;;;;;;;5000385;28;20048;-64
2024/03/30 05:23:17;;;;;;;25.35;3.10;;;;;;;;;;5018433;28;20050;-59
2024/03/30 05:25:44;;;;;;;21.10;2.92;;;;;;;;;;4996000;28;20495;-58
2024/03/30 05:28:11;;;;;;;24.23;3.28;;;;;;;;;;4986900;28;20042;-58
2024/03/30 05:30:38;;;;;;;32.60;4.18;;;;;;;;;;4985723;28;20510;-60
2024/03/30 05:33:06;;;;;;;13.00;3.08;;;;;;;;;;4983656;28;20566;-61
2024/03/30 05:35:34;;;;;;;25.02;3.92;;;;;;;;;;4982709;28;20399;-58
2024/03/30 05:38:00;;;;;;;14.52;2.10;;;;;;;;;;4986441;28;20520;-57
2024/03/30 05:40:31;;;;;;;21.58;3.40;;;;;;;;;;5023183;28;20491;-70
2024/03/30 05:42:58;;;;;;;23.17;4.00;;;;;;;;;;4984254;28;20424;-62
2024/03/30 05:45:25;;;;;;;21.38;3.20;;;;;;;;;;5013276;28;20046;-65
2024/03/30 05:47:52;;;;;;;19.48;3.53;;;;;;;;;;4974225;28;20096;-60
2024/03/30 05:50:21;;;;;;;18.98;3.25;;;;;;;;;;4979509;28;20057;-58
2024/03/30 05:52:48;;;;;;;17.35;2.92;;;;;;;;;;4980087;28;20503;-57
2024/03/30 05:55:15;;;;;;;30.67;3.40;;;;;;;;;;4985427;28;20054;-58
2024/03/30 05:57:42;;;;;;;17.48;2.85;;;;;;;;;;4985972;28;20067;-63
2024/03/30 06:00:10;;;;;;;11.30;2.22;;;;;;;;;;5011177;28;20422;-65
2024/03/30 06:02:37;;;;;;;20.15;3.72;;;;;;;;;;4980459;28;20369;-61
2024/03/30 06:05:04;;;;;;;24.35;4.00;;;;;;;;;;4984496;28;20454;-61
2024/03/30 06:07:32;;;;;;;24.88;3.30;;;;;;;;;;4987503;28;20087;-60
2024/03/30 06:10:00;;;;;;;18.67;3.88;;;;;;;;;;4988041;28;20412;-61
2024/03/30 06:12:27;;;;;;;19.77;2.85;;;;;;;;;;4978934;28;20049;-63
2024/03/30 06:14:54;;;;;;;20.52;3.28;;;;;;;;;;5016779;28;20511;-64
2024/03/30 06:17:20;;;;;;;17.83;3.35;;;;;;;;;;5029910;28;20512;-61
2024/03/30 06:19:48;;;;;;;22.92;3.30;;;;;;;;;;5002519;28;20055;-60
2024/03/30 06:22:14;;;;;;;21.20;3.28;;;;;;;;;;4983851;28;20058;-61
2024/03/30 06:24:43;;;;;;;19.02;3.22;;;;;;;;;;4978684;28;20092;-66
2024/03/30 06:27:10;;;;;;;13.13;3.05;;;;;;;;;;5011140;28;20044;-61
2024/03/30 06:29:38;;;;;;;23.80;2.90;;;;;;;;;;4985360;28;20445;-60
2024/03/30 06:32:05;;;;;;;17.33;3.25;;;;;;;;;;4990787;28;20407;-60
2024/03/30 06:34:32;;;;;;;26.23;4.68;;;;;;;;;;4991675;28;20079;-59
2024/03/30 06:36:59;;;;;;;15.93;2.88;;;;;;;;;;4984905;28;20047;-62
2024/03/30 06:43:40;;;;;;;20.45;3.47;;;;;;;;;;5024828;28;20454;-63
2024/03/30 06:45:00;;;;;;;15.55;2.75;;;;;;;;;;5021736;28;20164;-59
2024/03/30 06:47:28;;;;;;;17.63;3.60;;;;;;;;;;5017754;28;20411;-61
2024/03/30 06:49:56;;;;;;;22.75;4.30;;;;;;;;;;5031196;28;20076;-64
2024/03/30 06:52:23;;;;;;;25.25;4.20;;;;;;;;;;4996443;28;20054;-63
2024/03/30 06:54:50;;;;;;;26.50;3.85;;;;;;;;;;4986083;28;20206;-62
2024/03/30 06:57:18;;;;;;;28.73;4.15;;;;;;;;;;4984229;28;20539;-60
2024/03/30 06:59:46;;;;;;;16.15;2.65;;;;;;;;;;4984030;28;20054;-62
2024/03/30 07:02:13;;;;;;;21.42;4.20;;;;;;;;;;4982652;28;20054;-63
2024/03/30 07:04:40;;;;;;;21.92;3.15;;;;;;;;;;4984057;28;20062;-64
2024/03/30 07:07:07;;;;;;;24.48;3.40;;;;;;;;;;4994420;28;20052;-60
2024/03/30 07:09:34;;;;;;;15.93;2.55;;;;;;;;;;5002880;28;20061;-64
2024/03/30 07:12:00;;;;;;;26.85;3.80;;;;;;;;;;4998817;28;20142;-70
2024/03/30 07:14:29;;;;;;;22.88;4.15;;;;;;;;;;5002524;28;20054;-64
2024/03/30 07:16:56;;;;;;;22.38;3.53;;;;;;;;;;4998631;28;20052;-65
2024/03/30 07:19:23;;;;;;;22.60;3.80;;;;;;;;;;4992766;28;20069;-60
2024/03/30 07:21:50;;;;;;;25.38;2.97;;;;;;;;;;4995166;28;20068;-61
2024/03/30 07:24:18;;;;;;;16.98;3.08;;;;;;;;;;5002385;28;20540;-64
2024/03/30 07:26:44;;;;;;;20.08;3.38;;;;;;;;;;4991752;28;20050;-63
2024/03/30 07:29:12;;;;;;;21.55;3.47;;;;;;;;;;4984208;28;20061;-62
2024/03/30 07:31:40;;;;;;;18.60;2.58;;;;;;;;;;4982782;28;20423;-61
2024/03/30 07:34:07;;;;;;;16.05;2.38;;;;;;;;;;4985059;28;20058;-61
2024/03/30 07:36:35;;;;;;;10.52;2.40;;;;;;;;;;4977877;28;20467;-61
2024/03/30 07:39:02;;;;;;;20.15;2.67;;;;;;;;;;4975526;28;20192;-61
2024/03/30 07:41:29;;;;;;;20.27;3.38;;;;;;;;;;4979950;28;20055;-62
2024/03/30 07:43:56;;;;;;;10.85;2.45;;;;;;;;;;4982199;28;20107;-60
2024/03/30 07:46:24;;;;;;;19.50;2.90;;;;;;;;;;4984680;28;20492;-61
2024/03/30 07:48:51;;;;;;;22.65;3.45;;;;;;;;;;4989786;28;20054;-64
2024/03/30 07:51:19;;;;;;;11.93;2.63;;;;;;;;;;4985511;28;20419;-63
2024/03/30 07:53:45;;;;;;;15.88;2.25;;;;;;;;;;4985191;28;20066;-64
2024/03/30 07:56:13;;;;;;;15.43;2.55;;;;;;;;;;4986106;28;20424;-63
2024/03/30 07:58:39;;;;;;;20.45;2.95;;;;;;;;;;4985353;28;20366;-63
2024/03/30 08:01:07;;;;;;;22.83;2.75;;;;;;;;;;4979625;28;20054;-61
2024/03/30 08:03:33;;;;;;;25.67;2.83;;;;;;;;;;4981956;28;20062;-64
2024/03/30 08:06:03;;;;;;;12.35;2.78;;;;;;;;;;4983629;28;20057;-63
2024/03/30 08:08:29;;;;;;;19.95;3.38;;;;;;;;;;5013414;28;20391;-61
2024/03/30 08:10:58;;;;;;;23.85;2.90;;;;;;;;;;5032530;28;20516;-65
2024/03/30 08:13:24;;;;;;;20.90;2.67;;;;;;;;;;5005044;28;20513;-62
2024/03/30 08:15:52;;;;;;;18.88;3.20;;;;;;;;;;4993211;28;20053;-63
2024/03/30 08:18:20;;;;;;;25.42;3.20;;;;;;;;;;4998736;28;20053;-66
2024/03/30 08:20:48;;;;;;;19.67;2.92;;;;;;;;;;4999009;28;20134;-63
2024/03/30 08:23:15;;;;;;;21.63;3.17;;;;;;;;;;5001909;28;20075;-65
2024/03/30 08:25:43;;;;;;;22.20;3.15;;;;;;;;;;5007124;28;20046;-61
2024/03/30 08:28:10;;;;;;;18.42;3.00;;;;;;;;;;5007019;28;20410;-60
2024/03/30 08:30:37;;;;;;;14.82;2.67;;;;;;;;;;5006131;28;20423;-62
2024/03/30 08:33:04;;;;;;;17.60;2.47;;;;;;;;;;5006236;28;20516;-64
2024/03/30 08:35:32;;;;;;;19.27;2.95;;;;;;;;;;5006601;28;20049;-65
2024/03/30 08:37:58;;;;;;;19.33;3.17;;;;;;;;;;5005908;28;20473;-65
2024/03/30 08:40:27;;;;;;;19.13;2.83;;;;;;;;;;5003551;28;20178;-61
2024/03/30 08:42:53;;;;;;;16.90;3.47;;;;;;;;;;5004244;28;20433;-63
2024/03/30 08:45:21;;;;;;;21.98;3.10;;;;;;;;;;5006920;28;20061;-65
2024/03/30 08:47:47;;;;;;;18.77;3.35;;;;;;;;;;5003643;28;20134;-64
2024/03/30 08:50:15;;;;;;;15.55;2.75;;;;;;;;;;5004327;28;20057;-66
2024/03/30 08:52:42;;;;;;;14.30;2.72;;;;;;;;;;5005792;28;20058;-60
2024/03/30 08:55:09;;;;;;;19.42;2.38;;;;;;;;;;5007137;28;20456;-61
2024/03/30 08:57:37;;;;;;;12.57;2.35;;;;;;;;;;5005446;28;20107;-61
2024/03/30 09:00:08;;;;;;;19.55;2.60;;;;;;;;;;5005643;28;20058;-70
2024/03/30 09:02:36;;;;;;;23.20;3.60;;;;;;;;;;5006575;28;20045;-61
2024/03/30 09:05:03;;;;;;;18.83;3.15;;;;;;;;;;5007232;28;20098;-62
2024/03/30 09:07:30;;;;;;;21.77;3.67;;;;;;;;;;5006620;28;20057;-64
2024/03/30 09:09:57;;;;;;;18.63;3.22;;;;;;;;;;5005971;28;20424;-62
2024/03/30 09:12:24;;;;;;;17.48;3.35;;;;;;;;;;5005666;28;20076;-65
2024/03/30 09:14:52;;;;;;;19.50;3.28;;;;;;;;;;5006121;28;20512;-65
2024/03/30 09:17:19;;;;;;;17.83;3.33;;;;;;;;;;4993247;28;20100;-61
2024/03/30 09:19:46;;;;;;;19.38;3.00;;;;;;;;;;4986269;28;20046;-65
2024/03/30 09:22:13;;;;;;;20.08;3.65;;;;;;;;;;4986729;28;20058;-62
2024/03/30 09:24:43;;;;;;;15.85;2.28;;;;;;;;;;4986405;28;20388;-66
2024/03/30 09:27:09;;;;;;;18.95;2.70;;;;;;;;;;4985695;28;20103;-67
2024/03/30 09:29:37;;;;;;;21.75;3.13;;;;;;;;;;4984242;28;20308;-64
2024/03/30 09:32:05;;;;;;;18.45;3.55;;;;;;;;;;4986994;28;20112;-64
2024/03/30 09:34:32;;;;;;;16.50;2.80;;;;;;;;;;4987017;28;20058;-63
2024/03/30 09:36:59;;;;;;;20.13;4.45;;;;;;;;;;4995776;28;20068;-67
2024/03/30 09:39:26;;;;;;;24.52;2.88;;;;;;;;;;5003295;28;20460;-66
2024/03/30 09:41:53;;;;;;;12.18;2.60;;;;;;;;;;4987477;28;20062;-64
2024/03/30 09:44:21;;;;;;;17.77;3.40;;;;;;;;;;4987991;28;20061;-63
2024/03/30 09:46:49;;;;;;;24.73;4.30;;;;;;;;;;4983383;28;20124;-62
2024/03/30 09:49:19;;;;;;;17.58;2.95;;;;;;;;;;5003354;28;20050;-65
2024/03/30 09:51:47;;;;;;;17.33;2.85;;;;;;;;;;4983984;28;20046;-69
2024/03/30 09:54:16;;;;;;;19.77;2.65;;;;;;;;;;4991734;28;20050;-67
2024/03/30 09:56:43;;;;;;;20.02;3.50;;;;;;;;;;4990267;28;20425;-63
2024/03/30 09:59:12;;;;;;;16.98;3.40;;;;;;;;;;4991574;28;20399;-62
2024/03/30 10:01:38;;;;;;;15.10;2.40;;;;;;;;;;4990160;28;20462;-67
2024/03/30 10:04:06;;;;;;;20.60;2.63;;;;;;;;;;4993425;28;20510;-71
2024/03/30 10:06:44;;;;;;;23.17;3.33;;;;;;;;;;4982191;28;20495;-68
2024/03/30 10:09:14;;;;;;;30.35;4.05;;;;;;;;;;4994461;28;20542;-63
2024/03/30 10:11:41;;;;;;;16.27;3.25;;;;;;;;;;4985843;28;20108;-62
2024/03/30 10:14:13;;;;;;;21.40;3.70;;;;;;;;;;4986280;28;20050;-68
2024/03/30 10:16:39;;;;;;;17.98;3.00;;;;;;;;;;4990629;28;20721;-63
2024/03/30 10:19:08;;;;;;;24.23;3.95;;;;;;;;;;5004146;28;20046;-63
2024/03/30 10:21:35;;;;;;;19.50;3.30;;;;;;;;;;5004878;28;20053;-60
2024/03/30 10:24:03;;;;;;;20.63;3.00;;;;;;;;;;5006163;28;20065;-65
2024/03/30 10:26:29;;;;;;;15.45;2.85;;;;;;;;;;5004113;28;20049;-64
2024/03/30 10:28:57;;;;;;;19.23;3.38;;;;;;;;;;5005177;28;20445;-67
2024/03/30 10:31:23;;;;;;;19.60;2.85;;;;;;;;;;5015989;28;20048;-68
2024/03/30 10:33:51;;;;;;;22.42;3.05;;;;;;;;;;5004916;28;20057;-62
2024/03/30 10:36:17;;;;;;;15.80;2.78;;;;;;;;;;5005344;28;20050;-66
2024/03/30 10:38:46;;;;;;;21.05;4.20;;;;;;;;;;5006031;28;20425;-66
2024/03/30 10:41:12;;;;;;;14.27;4.03;;;;;;;;;;5004274;28;20057;-67
2024/03/30 10:43:40;;;;;;;20.92;3.15;;;;;;;;;;5005344;28;20053;-64
2024/03/30 10:46:06;;;;;;;14.70;3.10;;;;;;;;;;5006932;28;20049;-64
2024/03/30 10:48:33;;;;;;;17.75;2.67;;;;;;;;;;5003365;28;20057;-63
2024/03/30 10:51:00;;;;;;;16.25;3.30;;;;;;;;;;5009957;28;20061;-65
2024/03/30 10:53:27;;;;;;;24.25;3.40;;;;;;;;;;5057866;28;20053;-67
2024/03/30 10:55:55;;;;;;;23.17;3.75;;;;;;;;;;5010971;28;20436;-67
2024/03/30 10:58:22;;;;;;;18.63;2.58;;;;;;;;;;5003687;28;20053;-66
2024/03/30 11:00:49;;;;;;;13.93;2.70;;;;;;;;;;5005222;28;20090;-63
2024/03/30 11:03:18;;;;;;;14.55;2.75;;;;;;;;;;5004954;28;20401;-64
2024/03/30 11:05:45;;;;;;;16.95;2.65;;;;;;;;;;4996831;28;20414;-63
2024/03/30 11:08:13;;;;;;;18.67;3.10;;;;;;;;;;4979262;28;20054;-62
2024/03/30 11:10:40;;;;;;;21.92;3.17;;;;;;;;;;4983957;28;20265;-64
2024/03/30 11:13:09;;;;;;;15.95;3.03;;;;;;;;;;4995264;28;20047;-66
2024/03/30 11:15:41;;;;;;;14.52;2.35;;;;;;;;;;4994443;28;20068;-65
2024/03/30 11:18:12;;;;;;;13.68;2.58;;;;;;;;;;4992414;28;20582;-63
2024/03/30 11:20:44;;;;;;;16.73;2.40;;;;;;;;;;4995687;28;20570;-65
2024/03/30 11:23:20;;;;;;;15.40;2.47;;;;;;;;;;4983609;28;20107;-64
2024/03/30 11:25:50;;;;;;;15.20;3.40;;;;;;;;;;5048781;28;20055;-63
2024/03/30 11:28:23;;;;;;;14.45;2.83;;;;;;;;;;4994391;28;20057;-65
2024/03/30 11:30:54;;;;;;;19.08;2.88;;;;;;;;;;5044773;28;20054;-68
2024/03/30 11:33:22;;;;;;;14.02;2.75;;;;;;;;;;4995702;28;20062;-69
2024/03/30 11:35:52;;;;;;;23.60;3.08;;;;;;;;;;4975426;28;20054;-69
2024/03/30 11:38:21;;;;;;;13.65;2.20;;;;;;;;;;4991552;28;20069;-64
2024/03/30 11:40:50;;;;;;;13.27;2.63;;;;;;;;;;5016660;28;20529;-64
2024/03/30 11:43:24;;;;;;;16.73;2.40;;;;;;;;;;4984229;28;20057;-70
2024/03/30 11:45:52;;;;;;;13.82;2.33;;;;;;;;;;5008032;28;20361;-70
2024/03/30 11:48:19;;;;;;;12.25;2.92;;;;;;;;;;5048048;28;20055;-69
2024/03/30 11:50:47;;;;;;;18.65;3.42;;;;;;;;;;5017732;28;20054;-63
2024/03/30 11:53:17;;;;;;;14.07;2.47;;;;;;;;;;5021635;28;20066;-69
2024/03/30 11:55:45;;;;;;;12.63;2.65;;;;;;;;;;5011962;28;20062;-70
2024/03/30 11:58:18;;;;;;;10.93;2.33;;;;;;;;;;5002362;28;20061;-64
2024/03/30 12:00:53;;;;;;;15.13;2.72;;;;;;;;;;5006976;28;20063;-66
2024/03/30 12:03:20;;;;;;;12.63;2.67;;;;;;;;;;4979182;28;20050;-66
2024/03/30 12:05:48;;;;;;;17.17;2.30;;;;;;;;;;4982470;28;20058;-68
2024/03/30 12:08:15;;;;;;;15.70;2.55;;;;;;;;;;4992304;28;20067;-67
2024/03/30 12:10:48;;;;;;;18.55;2.85;;;;;;;;;;4987455;28;20066;-67
2024/03/30 12:13:14;;;;;;;15.82;2.85;;;;;;;;;;4987981;28;20507;-63
2024/03/30 12:15:41;;;;;;;14.88;2.88;;;;;;;;;;4988842;28;20062;-62
2024/03/30 12:18:09;;;;;;;18.05;3.25;;;;;;;;;;5005225;28;20441;-63
2024/03/30 12:20:37;;;;;;;10.77;3.15;;;;;;;;;;5022219;28;20051;-65
2024/03/30 12:23:05;;;;;;;17.95;2.72;;;;;;;;;;5014497;28;20058;-70
2024/03/30 12:25:33;;;;;;;18.27;2.88;;;;;;;;;;5007249;28;20476;-66
2024/03/30 12:28:00;;;;;;;17.73;3.03;;;;;;;;;;5006975;28;20525;-62
2024/03/30 12:30:28;;;;;;;15.50;2.63;;;;;;;;;;5007460;28;20057;-62
2024/03/30 12:32:55;;;;;;;12.13;2.30;;;;;;;;;;5007157;28;20065;-66
2024/03/30 12:35:24;;;;;;;14.73;3.05;;;;;;;;;;5007336;28;20082;-66
2024/03/30 12:37:51;;;;;;;13.70;2.78;;;;;;;;;;5006586;28;20469;-65
2024/03/30 12:40:18;;;;;;;14.23;2.83;;;;;;;;;;5005503;28;20049;-63
2024/03/30 12:42:47;;;;;;;18.50;2.67;;;;;;;;;;5006042;28;20049;-62
2024/03/30 12:45:14;;;;;;;17.83;3.17;;;;;;;;;;5007317;28;20058;-66
2024/03/30 12:47:41;;;;;;;16.17;2.53;;;;;;;;;;5006343;28;20057;-65
2024/03/30 12:50:09;;;;;;;17.58;2.20;;;;;;;;;;5007560;28;20475;-66
2024/03/30 12:52:37;;;;;;;15.85;2.70;;;;;;;;;;5007019;28;20298;-63
2024/03/30 12:55:07;;;;;;;19.60;3.25;;;;;;;;;;5006807;28;20068;-64
2024/03/30 12:57:34;;;;;;;14.82;2.65;;;;;;;;;;4984679;28;20058;-66
2024/03/30 13:00:03;;;;;;;17.50;2.70;;;;;;;;;;4986823;28;20051;-65
2024/03/30 13:02:30;;;;;;;20.23;2.70;;;;;;;;;;4985986;28;20043;-66
2024/03/30 13:05:07;;;;;;;20.85;2.88;;;;;;;;;;4983104;28;20449;-64
2024/03/30 13:07:33;;;;;;;23.50;3.53;;;;;;;;;;4979317;28;20568;-70
2024/03/30 13:10:07;;;;;;;16.23;3.17;;;;;;;;;;4973861;28;20491;-62
2024/03/30 13:12:34;;;;;;;17.52;3.20;;;;;;;;;;4981909;28;20435;-62
2024/03/30 13:15:01;;;;;;;18.30;3.22;;;;;;;;;;4981753;28;20056;-65
2024/03/30 13:17:27;;;;;;;20.35;3.83;;;;;;;;;;4999081;28;20049;-61
2024/03/30 13:19:55;;;;;;;13.88;2.70;;;;;;;;;;5006214;28;20062;-62
2024/03/30 13:22:21;;;;;;;20.13;2.88;;;;;;;;;;5005713;28;20066;-67
2024/03/30 13:24:49;;;;;;;16.35;2.88;;;;;;;;;;5006225;28;20061;-65
2024/03/30 13:27:16;;;;;;;14.27;2.40;;;;;;;;;;5000040;28;20052;-62
2024/03/30 13:29:44;;;;;;;14.75;3.00;;;;;;;;;;5005935;28;20061;-64
2024/03/30 13:32:10;;;;;;;19.38;3.35;;;;;;;;;;5005752;28;20054;-66
2024/03/30 13:34:39;;;;;;;23.92;3.20;;;;;;;;;;5006669;28;20076;-60
2024/03/30 13:37:05;;;;;;;21.08;2.83;;;;;;;;;;5003363;28;20406;-64
2024/03/30 13:39:33;;;;;;;17.65;3.28;;;;;;;;;;5006162;28;20483;-64
2024/03/30 13:42:00;;;;;;;22.58;2.88;;;;;;;;;;5005518;28;20495;-65
2024/03/30 13:44:28;;;;;;;22.75;3.55;;;;;;;;;;5006198;28;20046;-62
2024/03/30 13:46:55;;;;;;;17.23;3.20;;;;;;;;;;5004395;28;20046;-62
2024/03/30 13:49:22;;;;;;;20.30;3.33;;;;;;;;;;5006278;28;20061;-61
2024/03/30 13:51:48;;;;;;;19.83;3.35;;;;;;;;;;5005148;28;20042;-66
2024/03/30 13:54:18;;;;;;;22.60;3.90;;;;;;;;;;5005436;28;20399;-64
2024/03/30 13:56:44;;;;;;;16.70;2.90;;;;;;;;;;4996765;28;20054;-65
2024/03/30 13:59:12;;;;;;;17.70;3.50;;;;;;;;;;5006399;28;20053;-64
2024/03/30 14:01:40;;;;;;;21.13;3.13;;;;;;;;;;5005409;28;20114;-61
2024/03/30 14:04:07;;;;;;;22.23;4.25;;;;;;;;;;5005767;28;20053;-65
2024/03/30 14:06:34;;;;;;;15.02;3.20;;;;;;;;;;5003776;28;20064;-63
2024/03/30 14:09:01;;;;;;;18.73;2.83;;;;;;;;;;5005396;28;20046;-63
2024/03/30 14:11:28;;;;;;;27.25;3.85;;;;;;;;;;4996406;28;20061;-62
2024/03/30 14:13:55;;;;;;;17.42;3.65;;;;;;;;;;5006145;28;20461;-64
2024/03/30 14:16:22;;;;;;;23.05;3.67;;;;;;;;;;5004357;28;20081;-67
2024/03/30 14:18:51;;;;;;;18.73;3.13;;;;;;;;;;5005104;28;20352;-65
2024/03/30 14:21:17;;;;;;;17.08;3.13;;;;;;;;;;5004238;28;20099;-63
2024/03/30 14:23:45;;;;;;;20.73;3.47;;;;;;;;;;5005590;28;20371;-67
2024/03/30 14:26:11;;;;;;;15.60;3.15;;;;;;;;;;5001608;28;20038;-63
2024/03/30 14:28:39;;;;;;;23.52;4.07;;;;;;;;;;4986521;28;20054;-66
2024/03/30 14:31:05;;;;;;;15.48;2.80;;;;;;;;;;4986732;28;20051;-71
2024/03/30 14:33:32;;;;;;;24.63;3.42;;;;;;;;;;4986727;28;20046;-65
2024/03/30 14:36:01;;;;;;;12.82;2.88;;;;;;;;;;4985698;28;20186;-64